Winnemucca, NV

10:29 PM PDT on March 26, 2015 (GMT -0700)
Winnemucca Municipal | | Change Station
CLOSE
Current Station
Airport
Location: Winnemucca,
Elevation: 4311 ft
Nearby Weather Stations

Elev 4311 ft 40.90 °N, 117.81 °W | Updated 33 minutes ago

Clear
Clear
43 °F
Feels Like 41 °F
N
4
Wind Variable Wind from SE

Today
High -- | Low -- °F
--% Chance of Precip.
Yesterday
High -- | Low -- °F
Precip. -- in
6:44 AM 7:09 PM
Waxing Crescent, 49% visible
Pressure 30.24 in
Visibility 10.0 miles
Clouds Clear
Windchill 41 °F
Dew Point 29 °F
Humidity 58%
Rainfall 0.00 in
Snow Depth Not available.
UV 0 out of 12
Pollen 8.20 out of 12
Air Quality Not available.
Flu Activity Not available.
METAR KWMC 270456Z AUTO 14003KT 10SM CLR 06/M02 A3027 RMK AO2 SLP239 T00611017

More Conditions Fewer Conditions

Pressure 30.24 in
Visibility 10.0 miles
Clouds Clear
Windchill 41 °F
Dew Point 29 °F
Humidity 58%
Rainfall 0.00 in
Snow Depth Not available.
UV 0 out of 12
Pollen 8.20 out of 12
Air Quality Not available.
Flu Activity Not available.
METAR KWMC 270456Z AUTO 14003KT 10SM CLR 06/M02 A3027 RMK AO2 SLP239 T00611017

More Conditions Fewer Conditions

10-Day Weather Forecast

Almanac

Astronomy

Mar. 26, 2015 Rise Set
Actual Time
Civil Twilight
Nautical Twilight
Astronomical Twilight
Moon
Length of Visible Light
Length of Day
Tomorrow will be .
, % of the Moon is Illuminated

Today's Extremes

State Highs State Lows

Community

WunderPhotos

Upload Photos

1,808,698 photos uploaded!

WunderBlogs® & News

Nearby

Air Quality

  Air Quality AQ Index Pollutant
Not available.

Snow Depth

Station Depth Elevation

Earthquake Activity

City Distance Mag. Time & Date
Minimum magnitude displayed is 2.5.

Coastal Water Temperatures

Place Temperature

Stations

Nearby Weather Stations

Station Location Temp. Windchill Dew Point Humidity Wind Precip. Elev Updated Type